Terminal Aerodrome Forecast
Issued by NWS

Home | Current Version | Previous Version | Text Only | Print | Product List | Glossary On
Versions: 1 2 3 4 5 6 7 8 9 10 11 12 13 14 15 16 17 18 19 20 21 22 23 24 25 26 27 28 29 30 31 32
000
FTUS41 KCTP 171126
TAFBFD
TAF
KBFD 171126Z 1712/1812 00000KT 3SM BR VCFG SKC
     FM171300 17006KT P6SM SCT030 BKN100
     FM180500 16007KT 5SM -SHRA BR BKN030=

USA.gov is the U.S. government's official web portal to all federal, state and local government web resources and services.